Pagina principală
METAR-TAF:

METAR-TAF

Aeroporturi :

Puerto Carreño, Columbia

Latitudine: 06-10N, longitudine: 067-30W, elevație: 55 m

Observații meteo curente

Raportul a fost făcut în urmă cu 5 ore și 54 de minute, la 23:00 UTC
Vânt 5 kt de la Sud/Sud-vest
Temperatură 26°C
Umiditate 79%
Presiune 1014 hPa
Vizibilitate de 10 km sau mai mult
Nori puțini la o înălțime de 1500 picior

METAR: SKPC 182300Z 20005KT 9999 FEW015 26/22 Q1014

Ora: 23:54 (04:54 UTC)


TAF: lipsă

Observații și prognoze meteo pentru peste 4.000 de aeroporturi (rapoarte METAR și TAF).

Stațiile disponibile sunt reprezentate pe hartă prin puncte galbene și roșii.

Țineți indicatorul mouse-ului pe punctul dorit pentru a vedea denumirea stației.

Apoi, faceți clic pentru a vedea observațiile și prognozele meteorologice.

Pentru a schimba harta: Pentru mărire, faceți clic pe butoanele verzi cu cruce neagră; pentru micșorare, pe butonul verde cu o liniuță; pentru hărți învecinate, pe săgețile verzi.


METAR-TAF: